sensor_id;sensor_type;location;lat;lon;timestamp;temperature;humidity
6110;DHT22;3085;49.444;11.054;2022-09-12T00:01:44;15.80;99.90
6110;DHT22;3085;49.444;11.054;2022-09-12T00:04:10;15.80;99.90
6110;DHT22;3085;49.444;11.054;2022-09-12T00:06:37;15.80;99.90
6110;DHT22;3085;49.444;11.054;2022-09-12T00:09:07;15.80;99.90
6110;DHT22;3085;49.444;11.054;2022-09-12T00:11:35;15.70;99.90
6110;DHT22;3085;49.444;11.054;2022-09-12T00:14:03;15.80;99.90
6110;DHT22;3085;49.444;11.054;2022-09-12T00:16:32;15.70;99.90
6110;DHT22;3085;49.444;11.054;2022-09-12T00:18:59;15.70;99.90
6110;DHT22;3085;49.444;11.054;2022-09-12T00:21:27;15.70;99.90
6110;DHT22;3085;49.444;11.054;2022-09-12T00:23:54;15.60;99.90
6110;DHT22;3085;49.444;11.054;2022-09-12T00:26:22;15.60;99.90
6110;DHT22;3085;49.444;11.054;2022-09-12T00:28:49;15.50;99.90
6110;DHT22;3085;49.444;11.054;2022-09-12T00:31:18;15.50;99.90
6110;DHT22;3085;49.444;11.054;2022-09-12T00:33:45;15.50;99.90
6110;DHT22;3085;49.444;11.054;2022-09-12T00:36:14;15.50;99.90
6110;DHT22;3085;49.444;11.054;2022-09-12T00:38:41;15.50;99.90
6110;DHT22;3085;49.444;11.054;2022-09-12T00:41:14;15.50;99.90
6110;DHT22;3085;49.444;11.054;2022-09-12T00:43:44;15.50;99.90
6110;DHT22;3085;49.444;11.054;2022-09-12T00:46:18;15.40;99.90
6110;DHT22;3085;49.444;11.054;2022-09-12T00:48:53;15.40;99.90
6110;DHT22;3085;49.444;11.054;2022-09-12T00:51:22;15.40;99.90
6110;DHT22;3085;49.444;11.054;2022-09-12T00:53:50;15.40;99.90
6110;DHT22;3085;49.444;11.054;2022-09-12T00:56:19;15.40;99.90
6110;DHT22;3085;49.444;11.054;2022-09-12T00:58:51;15.30;99.90
6110;DHT22;3085;49.444;11.054;2022-09-12T01:01:20;15.40;99.90
6110;DHT22;3085;49.444;11.054;2022-09-12T01:03:47;15.30;99.90
6110;DHT22;3085;49.444;11.054;2022-09-12T01:06:16;15.30;99.90
6110;DHT22;3085;49.444;11.054;2022-09-12T01:08:44;15.30;99.90
6110;DHT22;3085;49.444;11.054;2022-09-12T01:11:12;15.30;99.90
6110;DHT22;3085;49.444;11.054;2022-09-12T01:13:39;15.30;99.90
6110;DHT22;3085;49.444;11.054;2022-09-12T01:16:08;15.30;99.90
6110;DHT22;3085;49.444;11.054;2022-09-12T01:18:43;15.20;99.90
6110;DHT22;3085;49.444;11.054;2022-09-12T01:21:19;15.20;99.90
6110;DHT22;3085;49.444;11.054;2022-09-12T01:24:16;15.10;99.90
6110;DHT22;3085;49.444;11.054;2022-09-12T01:33:12;15.10;99.90
6110;DHT22;3085;49.444;11.054;2022-09-12T01:35:45;15.00;99.90
6110;DHT22;3085;49.444;11.054;2022-09-12T01:38:23;15.00;99.90
6110;DHT22;3085;49.444;11.054;2022-09-12T01:40:58;15.00;99.90
6110;DHT22;3085;49.444;11.054;2022-09-12T01:43:31;15.00;99.90
6110;DHT22;3085;49.444;11.054;2022-09-12T01:46:02;15.00;99.90
6110;DHT22;3085;49.444;11.054;2022-09-12T01:48:37;15.00;99.90
6110;DHT22;3085;49.444;11.054;2022-09-12T01:51:08;15.00;99.90
6110;DHT22;3085;49.444;11.054;2022-09-12T01:53:40;15.00;99.90
6110;DHT22;3085;49.444;11.054;2022-09-12T01:56:11;15.00;99.90
6110;DHT22;3085;49.444;11.054;2022-09-12T01:58:42;15.20;99.90
6110;DHT22;3085;49.444;11.054;2022-09-12T02:01:13;15.00;99.90
6110;DHT22;3085;49.444;11.054;2022-09-12T02:03:46;15.00;99.90
6110;DHT22;3085;49.444;11.054;2022-09-12T02:06:18;14.90;99.90
6110;DHT22;3085;49.444;11.054;2022-09-12T02:08:48;14.80;99.90
6110;DHT22;3085;49.444;11.054;2022-09-12T02:11:17;14.90;99.90
6110;DHT22;3085;49.444;11.054;2022-09-12T02:13:48;14.90;99.90
6110;DHT22;3085;49.444;11.054;2022-09-12T02:16:19;14.90;99.90
6110;DHT22;3085;49.444;11.054;2022-09-12T02:18:51;14.90;99.90
6110;DHT22;3085;49.444;11.054;2022-09-12T02:21:19;14.90;99.90
6110;DHT22;3085;49.444;11.054;2022-09-12T02:23:52;14.80;99.90
6110;DHT22;3085;49.444;11.054;2022-09-12T02:26:24;14.80;99.90
6110;DHT22;3085;49.444;11.054;2022-09-12T02:28:52;14.80;99.90
6110;DHT22;3085;49.444;11.054;2022-09-12T02:31:23;14.80;99.90
6110;DHT22;3085;49.444;11.054;2022-09-12T02:34:02;14.80;99.90
6110;DHT22;3085;49.444;11.054;2022-09-12T02:36:38;14.70;99.90
6110;DHT22;3085;49.444;11.054;2022-09-12T02:39:08;14.70;99.90
6110;DHT22;3085;49.444;11.054;2022-09-12T02:41:35;14.70;99.90
6110;DHT22;3085;49.444;11.054;2022-09-12T02:44:02;14.70;99.90
6110;DHT22;3085;49.444;11.054;2022-09-12T02:46:34;14.60;99.90
6110;DHT22;3085;49.444;11.054;2022-09-12T02:49:03;14.60;99.90
6110;DHT22;3085;49.444;11.054;2022-09-12T02:51:30;14.60;99.90
6110;DHT22;3085;49.444;11.054;2022-09-12T02:53:57;14.60;99.90
6110;DHT22;3085;49.444;11.054;2022-09-12T02:56:27;14.60;99.90
6110;DHT22;3085;49.444;11.054;2022-09-12T02:58:57;14.50;99.90
6110;DHT22;3085;49.444;11.054;2022-09-12T03:01:38;14.50;99.90
6110;DHT22;3085;49.444;11.054;2022-09-12T03:04:24;14.50;99.90
6110;DHT22;3085;49.444;11.054;2022-09-12T03:07:03;14.50;99.90
6110;DHT22;3085;49.444;11.054;2022-09-12T03:09:35;14.50;99.90
6110;DHT22;3085;49.444;11.054;2022-09-12T03:12:10;14.40;99.90
6110;DHT22;3085;49.444;11.054;2022-09-12T03:14:59;14.40;99.90
6110;DHT22;3085;49.444;11.054;2022-09-12T03:17:36;14.40;99.90
6110;DHT22;3085;49.444;11.054;2022-09-12T03:20:10;14.40;99.90
6110;DHT22;3085;49.444;11.054;2022-09-12T03:22:45;14.40;99.90
6110;DHT22;3085;49.444;11.054;2022-09-12T03:25:17;14.50;99.90
6110;DHT22;3085;49.444;11.054;2022-09-12T03:27:54;14.40;99.90
6110;DHT22;3085;49.444;11.054;2022-09-12T03:30:21;14.30;99.90
6110;DHT22;3085;49.444;11.054;2022-09-12T03:32:50;14.30;99.90
6110;DHT22;3085;49.444;11.054;2022-09-12T03:35:21;14.30;99.90
6110;DHT22;3085;49.444;11.054;2022-09-12T03:37:49;14.20;99.90
6110;DHT22;3085;49.444;11.054;2022-09-12T03:40:17;14.30;99.90
6110;DHT22;3085;49.444;11.054;2022-09-12T03:42:43;14.10;99.90
6110;DHT22;3085;49.444;11.054;2022-09-12T03:45:11;14.20;99.90
6110;DHT22;3085;49.444;11.054;2022-09-12T03:47:38;14.10;99.90
6110;DHT22;3085;49.444;11.054;2022-09-12T03:50:05;14.10;99.90
6110;DHT22;3085;49.444;11.054;2022-09-12T03:52:34;14.10;99.90
6110;DHT22;3085;49.444;11.054;2022-09-12T03:55:00;14.10;99.90
6110;DHT22;3085;49.444;11.054;2022-09-12T03:57:27;14.00;99.90
6110;DHT22;3085;49.444;11.054;2022-09-12T03:59:54;14.00;99.90
6110;DHT22;3085;49.444;11.054;2022-09-12T04:02:21;14.00;99.90
6110;DHT22;3085;49.444;11.054;2022-09-12T04:04:48;14.00;99.90
6110;DHT22;3085;49.444;11.054;2022-09-12T04:07:15;14.00;99.90
6110;DHT22;3085;49.444;11.054;2022-09-12T04:09:43;14.00;99.90
6110;DHT22;3085;49.444;11.054;2022-09-12T04:12:11;14.00;99.90
6110;DHT22;3085;49.444;11.054;2022-09-12T04:14:38;13.90;99.90
6110;DHT22;3085;49.444;11.054;2022-09-12T04:17:05;14.00;99.90
6110;DHT22;3085;49.444;11.054;2022-09-12T04:19:32;13.90;99.90
6110;DHT22;3085;49.444;11.054;2022-09-12T04:21:58;13.90;99.90
6110;DHT22;3085;49.444;11.054;2022-09-12T04:24:25;13.90;99.90
6110;DHT22;3085;49.444;11.054;2022-09-12T04:26:53;13.90;99.90
6110;DHT22;3085;49.444;11.054;2022-09-12T04:29:20;13.90;99.90
6110;DHT22;3085;49.444;11.054;2022-09-12T04:31:47;13.90;99.90
6110;DHT22;3085;49.444;11.054;2022-09-12T04:34:14;13.80;99.90
6110;DHT22;3085;49.444;11.054;2022-09-12T04:36:41;13.80;99.90
6110;DHT22;3085;49.444;11.054;2022-09-12T04:39:08;13.80;99.90
6110;DHT22;3085;49.444;11.054;2022-09-12T04:41:37;13.80;99.90
6110;DHT22;3085;49.444;11.054;2022-09-12T04:44:07;13.80;99.90
6110;DHT22;3085;49.444;11.054;2022-09-12T04:46:39;13.80;99.90
6110;DHT22;3085;49.444;11.054;2022-09-12T04:49:07;13.80;99.90
6110;DHT22;3085;49.444;11.054;2022-09-12T04:51:35;13.80;99.90
6110;DHT22;3085;49.444;11.054;2022-09-12T04:54:04;13.70;99.90
6110;DHT22;3085;49.444;11.054;2022-09-12T04:56:31;13.70;99.90
6110;DHT22;3085;49.444;11.054;2022-09-12T04:59:00;13.70;99.90
6110;DHT22;3085;49.444;11.054;2022-09-12T05:01:28;13.70;99.90
6110;DHT22;3085;49.444;11.054;2022-09-12T05:03:56;13.70;99.90
6110;DHT22;3085;49.444;11.054;2022-09-12T05:06:26;13.70;99.90
6110;DHT22;3085;49.444;11.054;2022-09-12T05:08:53;13.60;99.90
6110;DHT22;3085;49.444;11.054;2022-09-12T05:11:23;13.60;99.90
6110;DHT22;3085;49.444;11.054;2022-09-12T05:13:50;13.60;99.90
6110;DHT22;3085;49.444;11.054;2022-09-12T05:16:19;13.50;99.90
6110;DHT22;3085;49.444;11.054;2022-09-12T05:18:48;13.50;99.90
6110;DHT22;3085;49.444;11.054;2022-09-12T05:21:17;13.50;99.90
6110;DHT22;3085;49.444;11.054;2022-09-12T05:23:44;13.50;99.90
6110;DHT22;3085;49.444;11.054;2022-09-12T05:26:13;13.50;99.90
6110;DHT22;3085;49.444;11.054;2022-09-12T05:28:41;13.60;99.90
6110;DHT22;3085;49.444;11.054;2022-09-12T05:31:10;13.60;99.90
6110;DHT22;3085;49.444;11.054;2022-09-12T05:33:39;13.60;99.90
6110;DHT22;3085;49.444;11.054;2022-09-12T05:36:11;13.60;99.90
6110;DHT22;3085;49.444;11.054;2022-09-12T05:38:38;13.60;99.90
6110;DHT22;3085;49.444;11.054;2022-09-12T05:41:07;13.60;99.90
6110;DHT22;3085;49.444;11.054;2022-09-12T05:43:36;13.50;99.90
6110;DHT22;3085;49.444;11.054;2022-09-12T05:46:04;13.60;99.90
6110;DHT22;3085;49.444;11.054;2022-09-12T05:48:34;13.60;99.90
6110;DHT22;3085;49.444;11.054;2022-09-12T05:51:03;13.60;99.90
6110;DHT22;3085;49.444;11.054;2022-09-12T05:53:33;13.70;99.90
6110;DHT22;3085;49.444;11.054;2022-09-12T05:56:04;13.70;99.90
6110;DHT22;3085;49.444;11.054;2022-09-12T05:58:32;13.70;99.90
6110;DHT22;3085;49.444;11.054;2022-09-12T06:01:07;13.60;99.90
6110;DHT22;3085;49.444;11.054;2022-09-12T06:03:38;13.60;99.90
6110;DHT22;3085;49.444;11.054;2022-09-12T06:06:06;13.70;99.90
6110;DHT22;3085;49.444;11.054;2022-09-12T06:08:34;13.80;99.90
6110;DHT22;3085;49.444;11.054;2022-09-12T06:11:03;13.70;99.90
6110;DHT22;3085;49.444;11.054;2022-09-12T06:13:31;13.70;99.90
6110;DHT22;3085;49.444;11.054;2022-09-12T06:16:04;13.60;99.90
6110;DHT22;3085;49.444;11.054;2022-09-12T06:18:32;13.50;99.90
6110;DHT22;3085;49.444;11.054;2022-09-12T06:21:02;13.60;99.90
6110;DHT22;3085;49.444;11.054;2022-09-12T06:23:29;13.50;99.90
6110;DHT22;3085;49.444;11.054;2022-09-12T06:25:57;13.50;99.90
6110;DHT22;3085;49.444;11.054;2022-09-12T06:28:24;13.60;99.90
6110;DHT22;3085;49.444;11.054;2022-09-12T06:30:51;13.60;99.90
6110;DHT22;3085;49.444;11.054;2022-09-12T06:33:19;13.50;99.90
6110;DHT22;3085;49.444;11.054;2022-09-12T06:35:46;13.70;99.90
6110;DHT22;3085;49.444;11.054;2022-09-12T06:38:12;13.70;99.90
6110;DHT22;3085;49.444;11.054;2022-09-12T06:40:40;13.80;99.90
6110;DHT22;3085;49.444;11.054;2022-09-12T06:43:10;14.00;99.90
6110;DHT22;3085;49.444;11.054;2022-09-12T06:45:38;14.10;99.90
6110;DHT22;3085;49.444;11.054;2022-09-12T06:48:05;14.00;99.90
6110;DHT22;3085;49.444;11.054;2022-09-12T06:50:31;14.10;99.90
6110;DHT22;3085;49.444;11.054;2022-09-12T06:52:58;14.10;99.90
6110;DHT22;3085;49.444;11.054;2022-09-12T06:55:25;14.10;99.90
6110;DHT22;3085;49.444;11.054;2022-09-12T06:57:53;14.30;99.90
6110;DHT22;3085;49.444;11.054;2022-09-12T07:00:21;14.30;99.90
6110;DHT22;3085;49.444;11.054;2022-09-12T07:02:52;14.50;99.90
6110;DHT22;3085;49.444;11.054;2022-09-12T07:05:20;14.50;99.90
6110;DHT22;3085;49.444;11.054;2022-09-12T07:07:46;14.60;99.90
6110;DHT22;3085;49.444;11.054;2022-09-12T07:10:13;14.50;99.90
6110;DHT22;3085;49.444;11.054;2022-09-12T07:12:40;14.60;99.90
6110;DHT22;3085;49.444;11.054;2022-09-12T07:15:08;14.60;99.90
6110;DHT22;3085;49.444;11.054;2022-09-12T07:17:36;14.70;99.90
6110;DHT22;3085;49.444;11.054;2022-09-12T07:20:04;14.70;99.90
6110;DHT22;3085;49.444;11.054;2022-09-12T07:22:31;14.80;99.90
6110;DHT22;3085;49.444;11.054;2022-09-12T07:24:58;14.90;99.90
6110;DHT22;3085;49.444;11.054;2022-09-12T07:27:24;15.00;99.90
6110;DHT22;3085;49.444;11.054;2022-09-12T07:29:51;15.00;99.90
6110;DHT22;3085;49.444;11.054;2022-09-12T07:32:18;15.20;99.90
6110;DHT22;3085;49.444;11.054;2022-09-12T07:34:46;15.60;99.90
6110;DHT22;3085;49.444;11.054;2022-09-12T07:37:14;15.30;99.90
6110;DHT22;3085;49.444;11.054;2022-09-12T07:39:41;15.40;99.90
6110;DHT22;3085;49.444;11.054;2022-09-12T07:42:08;15.40;99.90
6110;DHT22;3085;49.444;11.054;2022-09-12T07:44:37;15.50;99.90
6110;DHT22;3085;49.444;11.054;2022-09-12T07:47:04;15.70;99.90
6110;DHT22;3085;49.444;11.054;2022-09-12T07:49:31;15.70;99.90
6110;DHT22;3085;49.444;11.054;2022-09-12T07:51:59;15.80;99.90
6110;DHT22;3085;49.444;11.054;2022-09-12T07:54:26;15.90;99.90
6110;DHT22;3085;49.444;11.054;2022-09-12T07:56:53;15.90;99.90
6110;DHT22;3085;49.444;11.054;2022-09-12T07:59:20;16.00;99.90
6110;DHT22;3085;49.444;11.054;2022-09-12T08:01:47;16.00;99.90
6110;DHT22;3085;49.444;11.054;2022-09-12T08:04:13;16.00;99.90
6110;DHT22;3085;49.444;11.054;2022-09-12T08:06:40;16.20;99.90
6110;DHT22;3085;49.444;11.054;2022-09-12T08:09:10;16.30;99.90
6110;DHT22;3085;49.444;11.054;2022-09-12T08:11:49;16.40;99.90
6110;DHT22;3085;49.444;11.054;2022-09-12T08:14:15;16.50;99.90
6110;DHT22;3085;49.444;11.054;2022-09-12T08:16:42;16.60;99.90
6110;DHT22;3085;49.444;11.054;2022-09-12T08:19:10;16.70;99.90
6110;DHT22;3085;49.444;11.054;2022-09-12T08:21:36;16.60;99.90
6110;DHT22;3085;49.444;11.054;2022-09-12T08:24:05;16.70;99.90
6110;DHT22;3085;49.444;11.054;2022-09-12T08:26:33;16.90;99.90
6110;DHT22;3085;49.444;11.054;2022-09-12T08:29:00;17.00;99.90
6110;DHT22;3085;49.444;11.054;2022-09-12T08:31:29;17.10;99.90
6110;DHT22;3085;49.444;11.054;2022-09-12T08:34:01;17.20;99.90
6110;DHT22;3085;49.444;11.054;2022-09-12T08:36:28;17.30;99.90
6110;DHT22;3085;49.444;11.054;2022-09-12T08:38:57;17.30;99.90
6110;DHT22;3085;49.444;11.054;2022-09-12T08:41:28;17.40;99.90
6110;DHT22;3085;49.444;11.054;2022-09-12T08:44:27;17.50;99.90
6110;DHT22;3085;49.444;11.054;2022-09-12T08:47:16;17.50;99.90
6110;DHT22;3085;49.444;11.054;2022-09-12T08:49:51;17.60;99.90
6110;DHT22;3085;49.444;11.054;2022-09-12T08:52:22;17.70;99.90
6110;DHT22;3085;49.444;11.054;2022-09-12T08:54:51;17.70;99.90
6110;DHT22;3085;49.444;11.054;2022-09-12T08:57:19;17.60;99.90
6110;DHT22;3085;49.444;11.054;2022-09-12T08:59:47;17.80;99.90
6110;DHT22;3085;49.444;11.054;2022-09-12T09:02:30;17.80;99.90
6110;DHT22;3085;49.444;11.054;2022-09-12T09:05:05;18.00;99.90
6110;DHT22;3085;49.444;11.054;2022-09-12T09:10:47;18.10;99.90
6110;DHT22;3085;49.444;11.054;2022-09-12T09:13:27;18.10;99.90
6110;DHT22;3085;49.444;11.054;2022-09-12T09:16:30;18.10;99.90
6110;DHT22;3085;49.444;11.054;2022-09-12T09:18:59;18.30;99.90
6110;DHT22;3085;49.444;11.054;2022-09-12T09:21:31;18.40;99.90
6110;DHT22;3085;49.444;11.054;2022-09-12T09:24:04;18.40;99.90
6110;DHT22;3085;49.444;11.054;2022-09-12T09:26:40;18.50;99.90
6110;DHT22;3085;49.444;11.054;2022-09-12T09:29:14;18.50;99.90
6110;DHT22;3085;49.444;11.054;2022-09-12T09:31:47;18.70;99.90
6110;DHT22;3085;49.444;11.054;2022-09-12T09:34:17;18.60;99.90
6110;DHT22;3085;49.444;11.054;2022-09-12T09:36:49;18.60;99.90
6110;DHT22;3085;49.444;11.054;2022-09-12T09:39:24;18.70;99.90
6110;DHT22;3085;49.444;11.054;2022-09-12T09:42:00;18.80;99.90
6110;DHT22;3085;49.444;11.054;2022-09-12T09:44:32;18.90;99.90
6110;DHT22;3085;49.444;11.054;2022-09-12T09:47:00;18.90;99.90
6110;DHT22;3085;49.444;11.054;2022-09-12T09:49:29;18.90;99.90
6110;DHT22;3085;49.444;11.054;2022-09-12T09:51:58;19.00;99.90
6110;DHT22;3085;49.444;11.054;2022-09-12T09:54:30;19.00;99.90
6110;DHT22;3085;49.444;11.054;2022-09-12T09:57:00;19.10;99.90
6110;DHT22;3085;49.444;11.054;2022-09-12T09:59:29;19.20;99.90
6110;DHT22;3085;49.444;11.054;2022-09-12T10:01:58;19.40;99.90
6110;DHT22;3085;49.444;11.054;2022-09-12T10:04:30;19.20;99.90
6110;DHT22;3085;49.444;11.054;2022-09-12T10:06:59;19.40;99.90
6110;DHT22;3085;49.444;11.054;2022-09-12T10:09:27;19.40;99.90
6110;DHT22;3085;49.444;11.054;2022-09-12T10:11:55;19.50;99.90
6110;DHT22;3085;49.444;11.054;2022-09-12T10:14:31;19.70;99.90
6110;DHT22;3085;49.444;11.054;2022-09-12T10:17:00;19.80;99.90
6110;DHT22;3085;49.444;11.054;2022-09-12T10:19:37;19.80;99.90
6110;DHT22;3085;49.444;11.054;2022-09-12T10:22:05;19.80;99.90
6110;DHT22;3085;49.444;11.054;2022-09-12T10:24:35;19.90;99.90
6110;DHT22;3085;49.444;11.054;2022-09-12T10:27:08;19.90;99.90
6110;DHT22;3085;49.444;11.054;2022-09-12T10:29:41;20.00;99.90
6110;DHT22;3085;49.444;11.054;2022-09-12T10:32:23;20.00;99.90
6110;DHT22;3085;49.444;11.054;2022-09-12T10:34:56;20.00;99.90
6110;DHT22;3085;49.444;11.054;2022-09-12T10:37:27;20.10;99.90
6110;DHT22;3085;49.444;11.054;2022-09-12T10:39:57;20.10;99.90
6110;DHT22;3085;49.444;11.054;2022-09-12T10:42:52;20.10;99.90
6110;DHT22;3085;49.444;11.054;2022-09-12T10:45:25;20.30;99.90
6110;DHT22;3085;49.444;11.054;2022-09-12T10:47:54;20.30;99.90
6110;DHT22;3085;49.444;11.054;2022-09-12T10:50:27;20.30;99.90
6110;DHT22;3085;49.444;11.054;2022-09-12T10:52:54;20.30;99.90
6110;DHT22;3085;49.444;11.054;2022-09-12T10:55:40;20.40;99.90
6110;DHT22;3085;49.444;11.054;2022-09-12T10:58:19;20.40;99.90
6110;DHT22;3085;49.444;11.054;2022-09-12T11:00:54;20.60;99.90
6110;DHT22;3085;49.444;11.054;2022-09-12T11:03:37;20.70;99.90
6110;DHT22;3085;49.444;11.054;2022-09-12T11:06:11;20.70;99.90
6110;DHT22;3085;49.444;11.054;2022-09-12T11:08:50;20.70;99.90
6110;DHT22;3085;49.444;11.054;2022-09-12T11:11:38;20.80;99.90
6110;DHT22;3085;49.444;11.054;2022-09-12T11:14:27;20.90;99.90
6110;DHT22;3085;49.444;11.054;2022-09-12T11:17:02;21.00;99.90
6110;DHT22;3085;49.444;11.054;2022-09-12T11:25:28;21.10;99.90
6110;DHT22;3085;49.444;11.054;2022-09-12T11:31:18;20.90;99.90
6110;DHT22;3085;49.444;11.054;2022-09-12T11:33:49;20.90;99.90
6110;DHT22;3085;49.444;11.054;2022-09-12T11:36:28;20.70;99.90
6110;DHT22;3085;49.444;11.054;2022-09-12T11:39:01;20.60;99.90
6110;DHT22;3085;49.444;11.054;2022-09-12T11:41:31;20.70;99.90
6110;DHT22;3085;49.444;11.054;2022-09-12T11:44:03;20.80;99.90
6110;DHT22;3085;49.444;11.054;2022-09-12T11:46:36;20.90;99.90
6110;DHT22;3085;49.444;11.054;2022-09-12T11:49:10;20.90;99.90
6110;DHT22;3085;49.444;11.054;2022-09-12T11:51:43;21.00;99.90
6110;DHT22;3085;49.444;11.054;2022-09-12T11:54:19;21.00;99.90
6110;DHT22;3085;49.444;11.054;2022-09-12T11:56:52;21.00;99.90
6110;DHT22;3085;49.444;11.054;2022-09-12T11:59:30;21.00;99.90
6110;DHT22;3085;49.444;11.054;2022-09-12T12:01:59;21.00;99.90
6110;DHT22;3085;49.444;11.054;2022-09-12T12:04:33;21.00;99.90
6110;DHT22;3085;49.444;11.054;2022-09-12T12:07:04;21.20;99.90
6110;DHT22;3085;49.444;11.054;2022-09-12T12:09:33;21.30;99.90
6110;DHT22;3085;49.444;11.054;2022-09-12T12:12:03;21.40;99.90
6110;DHT22;3085;49.444;11.054;2022-09-12T12:14:37;21.40;99.90
6110;DHT22;3085;49.444;11.054;2022-09-12T12:17:13;21.50;99.90
6110;DHT22;3085;49.444;11.054;2022-09-12T12:19:41;21.50;99.90
6110;DHT22;3085;49.444;11.054;2022-09-12T12:22:15;21.50;99.90
6110;DHT22;3085;49.444;11.054;2022-09-12T12:24:58;21.60;99.90
6110;DHT22;3085;49.444;11.054;2022-09-12T12:27:45;21.70;99.90
6110;DHT22;3085;49.444;11.054;2022-09-12T12:36:37;21.80;99.90
6110;DHT22;3085;49.444;11.054;2022-09-12T12:42:08;21.80;99.90
6110;DHT22;3085;49.444;11.054;2022-09-12T12:44:49;21.80;99.90
6110;DHT22;3085;49.444;11.054;2022-09-12T12:47:19;21.70;99.90
6110;DHT22;3085;49.444;11.054;2022-09-12T12:49:52;21.80;99.90
6110;DHT22;3085;49.444;11.054;2022-09-12T12:52:21;21.90;99.90
6110;DHT22;3085;49.444;11.054;2022-09-12T12:54:55;21.90;99.90
6110;DHT22;3085;49.444;11.054;2022-09-12T12:57:28;22.00;99.90
6110;DHT22;3085;49.444;11.054;2022-09-12T12:59:59;21.80;99.90
6110;DHT22;3085;49.444;11.054;2022-09-12T13:02:30;21.90;99.90
6110;DHT22;3085;49.444;11.054;2022-09-12T13:05:00;21.90;99.90
6110;DHT22;3085;49.444;11.054;2022-09-12T13:07:33;22.00;99.90
6110;DHT22;3085;49.444;11.054;2022-09-12T13:10:03;22.00;99.90
6110;DHT22;3085;49.444;11.054;2022-09-12T13:12:35;22.10;99.90
6110;DHT22;3085;49.444;11.054;2022-09-12T13:15:27;22.10;99.90
6110;DHT22;3085;49.444;11.054;2022-09-12T13:17:58;22.20;99.90
6110;DHT22;3085;49.444;11.054;2022-09-12T13:20:30;22.70;99.90
6110;DHT22;3085;49.444;11.054;2022-09-12T13:22:58;22.20;99.90
6110;DHT22;3085;49.444;11.054;2022-09-12T13:25:28;22.20;99.90
6110;DHT22;3085;49.444;11.054;2022-09-12T13:28:00;22.20;99.90
6110;DHT22;3085;49.444;11.054;2022-09-12T13:30:30;22.20;99.90
6110;DHT22;3085;49.444;11.054;2022-09-12T13:33:17;22.20;99.90
6110;DHT22;3085;49.444;11.054;2022-09-12T13:38:57;22.20;99.90
6110;DHT22;3085;49.444;11.054;2022-09-12T13:41:39;22.30;99.90
6110;DHT22;3085;49.444;11.054;2022-09-12T13:44:12;22.30;99.90
6110;DHT22;3085;49.444;11.054;2022-09-12T13:46:40;22.30;99.90
6110;DHT22;3085;49.444;11.054;2022-09-12T13:49:17;22.30;99.90
6110;DHT22;3085;49.444;11.054;2022-09-12T13:51:59;22.30;99.90
6110;DHT22;3085;49.444;11.054;2022-09-12T13:54:27;22.60;99.90
6110;DHT22;3085;49.444;11.054;2022-09-12T13:56:54;22.30;99.90
6110;DHT22;3085;49.444;11.054;2022-09-12T13:59:21;22.30;99.90
6110;DHT22;3085;49.444;11.054;2022-09-12T14:01:48;22.30;99.90
6110;DHT22;3085;49.444;11.054;2022-09-12T14:04:18;22.30;99.90
6110;DHT22;3085;49.444;11.054;2022-09-12T14:07:10;22.20;99.90
6110;DHT22;3085;49.444;11.054;2022-09-12T14:09:39;22.10;99.90
6110;DHT22;3085;49.444;11.054;2022-09-12T14:12:14;22.20;99.90
6110;DHT22;3085;49.444;11.054;2022-09-12T14:14:47;22.30;99.90
6110;DHT22;3085;49.444;11.054;2022-09-12T14:17:16;22.30;99.90
6110;DHT22;3085;49.444;11.054;2022-09-12T14:19:50;22.50;99.90
6110;DHT22;3085;49.444;11.054;2022-09-12T14:22:17;22.50;99.90
6110;DHT22;3085;49.444;11.054;2022-09-12T14:24:46;22.50;99.90
6110;DHT22;3085;49.444;11.054;2022-09-12T14:27:17;22.40;99.90
6110;DHT22;3085;49.444;11.054;2022-09-12T14:29:45;22.30;99.90
6110;DHT22;3085;49.444;11.054;2022-09-12T14:32:21;22.30;99.90
6110;DHT22;3085;49.444;11.054;2022-09-12T14:35:18;22.30;99.90
6110;DHT22;3085;49.444;11.054;2022-09-12T14:37:47;22.40;99.90
6110;DHT22;3085;49.444;11.054;2022-09-12T14:40:17;22.50;99.90
6110;DHT22;3085;49.444;11.054;2022-09-12T14:42:45;22.50;99.90
6110;DHT22;3085;49.444;11.054;2022-09-12T14:45:17;22.60;99.90
6110;DHT22;3085;49.444;11.054;2022-09-12T14:47:48;22.50;99.90
6110;DHT22;3085;49.444;11.054;2022-09-12T14:50:19;22.40;99.90
6110;DHT22;3085;49.444;11.054;2022-09-12T14:53:02;22.50;99.90
6110;DHT22;3085;49.444;11.054;2022-09-12T14:55:31;22.60;99.90
6110;DHT22;3085;49.444;11.054;2022-09-12T14:58:14;22.70;99.90
6110;DHT22;3085;49.444;11.054;2022-09-12T15:00:53;22.90;99.90
6110;DHT22;3085;49.444;11.054;2022-09-12T15:03:25;23.00;99.90
6110;DHT22;3085;49.444;11.054;2022-09-12T15:05:54;23.00;99.90
6110;DHT22;3085;49.444;11.054;2022-09-12T15:08:21;23.10;99.90
6110;DHT22;3085;49.444;11.054;2022-09-12T15:10:48;23.20;99.90
6110;DHT22;3085;49.444;11.054;2022-09-12T15:13:18;23.20;99.90
6110;DHT22;3085;49.444;11.054;2022-09-12T15:15:47;23.20;99.90
6110;DHT22;3085;49.444;11.054;2022-09-12T15:18:14;23.20;99.90
6110;DHT22;3085;49.444;11.054;2022-09-12T15:20:42;23.40;99.90
6110;DHT22;3085;49.444;11.054;2022-09-12T15:23:17;23.50;99.90
6110;DHT22;3085;49.444;11.054;2022-09-12T15:25:44;23.50;99.90
6110;DHT22;3085;49.444;11.054;2022-09-12T15:28:16;23.10;99.90
6110;DHT22;3085;49.444;11.054;2022-09-12T15:30:43;23.80;99.90
6110;DHT22;3085;49.444;11.054;2022-09-12T15:33:14;24.00;99.90
6110;DHT22;3085;49.444;11.054;2022-09-12T15:35:41;24.00;99.90
6110;DHT22;3085;49.444;11.054;2022-09-12T15:38:07;24.10;99.90
6110;DHT22;3085;49.444;11.054;2022-09-12T15:40:35;24.20;99.90
6110;DHT22;3085;49.444;11.054;2022-09-12T15:43:02;24.20;99.90
6110;DHT22;3085;49.444;11.054;2022-09-12T15:45:31;24.10;99.90
6110;DHT22;3085;49.444;11.054;2022-09-12T15:47:59;24.10;99.90
6110;DHT22;3085;49.444;11.054;2022-09-12T15:50:27;24.20;99.90
6110;DHT22;3085;49.444;11.054;2022-09-12T15:52:54;24.00;99.90
6110;DHT22;3085;49.444;11.054;2022-09-12T15:55:23;24.20;99.90
6110;DHT22;3085;49.444;11.054;2022-09-12T15:57:52;24.10;99.90
6110;DHT22;3085;49.444;11.054;2022-09-12T16:00:19;24.50;99.90
6110;DHT22;3085;49.444;11.054;2022-09-12T16:02:48;24.50;99.90
6110;DHT22;3085;49.444;11.054;2022-09-12T16:05:17;24.50;99.90
6110;DHT22;3085;49.444;11.054;2022-09-12T16:07:45;24.60;99.90
6110;DHT22;3085;49.444;11.054;2022-09-12T16:10:14;24.30;99.90
6110;DHT22;3085;49.444;11.054;2022-09-12T16:12:42;24.30;99.90
6110;DHT22;3085;49.444;11.054;2022-09-12T16:15:16;24.30;99.90
6110;DHT22;3085;49.444;11.054;2022-09-12T16:17:44;24.70;99.90
6110;DHT22;3085;49.444;11.054;2022-09-12T16:20:11;25.10;99.90
6110;DHT22;3085;49.444;11.054;2022-09-12T16:22:38;25.20;99.90
6110;DHT22;3085;49.444;11.054;2022-09-12T16:25:06;25.20;99.90
6110;DHT22;3085;49.444;11.054;2022-09-12T16:27:34;25.40;99.90
6110;DHT22;3085;49.444;11.054;2022-09-12T16:30:01;25.50;99.90
6110;DHT22;3085;49.444;11.054;2022-09-12T16:32:29;25.30;99.90
6110;DHT22;3085;49.444;11.054;2022-09-12T16:34:56;25.40;99.90
6110;DHT22;3085;49.444;11.054;2022-09-12T16:37:23;25.60;99.90
6110;DHT22;3085;49.444;11.054;2022-09-12T16:39:50;25.50;99.90